East Middlebury, VT

9:21 PM EDT on September 30, 2014 (GMT -0400)
Rutland State | Change Station
CLOSE
Current Station
Airport
Location: Rutland,
Elevation: 787 ft
Nearby Weather Stations

Elev 787 ft 43.53 °N, 72.95 °W | Updated 6 minutes ago

Partly Cloudy
Partly Cloudy
61 °F
Feels Like 61 °F
N
8
Wind Variable Wind from SSE

Today
High -- | Low -- °F
--% Chance of Precip.
Yesterday
High -- | Low -- °F
Precip. -- in
6:48 AM 6:35 PM
Waxing Crescent, 42% visible
Pressure 30.01 in
Visibility 10.0 miles
Clouds Few 1800 ft
Dew Point 54 °F
Humidity 77%
Rainfall 0.00 in
Snow Depth Not available.
UV 0 out of 12
Pollen 1.40 out of 12
Ozone Good
PM2.5 Good
Flu Activity Not available.
METAR KRUT 010115Z 15007KT 10SM FEW018 16/12 A3001 RMK AO1

More Conditions Fewer Conditions

Pressure 30.01 in
Visibility 10.0 miles
Clouds Few 1800 ft
Dew Point 54 °F
Humidity 77%
Rainfall 0.00 in
Snow Depth Not available.
UV 0 out of 12
Pollen 1.40 out of 12
Ozone Good
PM2.5 Good
Flu Activity Not available.
METAR KRUT 010115Z 15007KT 10SM FEW018 16/12 A3001 RMK AO1

More Conditions Fewer Conditions

10-Day Weather Forecast

Almanac

Astronomy

Sep. 30, 2014 Rise Set
Actual Time 6:48 AM EDT 6:35 PM EDT
Civil Twilight 6:20 AM EDT 7:03 PM EDT
Nautical Twilight 5:46 AM EDT 7:37 PM EDT
Astronomical Twilight 5:12 AM EDT 8:11 PM EDT
Moon 1:03 PM EDT (9/30) 10:53 PM EDT (9/30)
Length of Visible Light 12h 43m
Length of Day
11h 46m
Tomorrow will be 2m 59s shorter.
Waxing Crescent, 42% of the Moon is Illuminated
Today
Waxing Crescent
Oct 1
First Quarter
Oct 8
Full
Oct 15
Last Quarter
Oct 23
New

Today's Extremes

State Highs State Lows

Community

WunderPhotos

Upload Photos

1,757,815 photos uploaded!

Nearby

Air Quality

  Air Quality AQ Index Pollutant
Yesterday Good
PM2.5
Yesterday Good
OZONE
Current Good
PM2.5
Current Good
OZONE
Tuesday Good
PM2.5
Tuesday Good
OZONE
Wednesday Good
PM2.5
Wednesday Good
OZONE
Thursday Good
PM2.5
Thursday Good
OZONE

Snow Depth

Station Depth Elevation
No new snow has been reported.

Earthquake Activity

City Distance Mag. Time & Date
No recent earthquake activity has been reported nearby.
Minimum magnitude displayed is 2.5.

Coastal Water Temperatures

Place Temperature
No Stations Reporting

Nearby Weather Stations